Santa Monica, California
Current Conditions -  °F | °C
As of 6:51 PM on Wednesday 22 Oct 2014 (Local Time) from KSMO Reporting Station
Clear Clear  
Wind Chill: 21°   Ceiling: Unl
Heat Index: 21°   Visibility: 10mi
Dew Point: 17°   Wind: 5mph
Humidity: 78%   Direction: 250°WSW
Pressure: 29.91"   Gusts: NA
Location:  34.01°N, 118.49°W
Report Text: KSMO 230151Z 25004KT 10SM CLR 21/17 A2991 RMK AO2 SLP129 T02110172
Loading
Personal Weather Stations






























Interactive Weather Map
Tropical Storm Tracking
New forecast layout! Learn more

10-Day Weather Forecast

Advertisements
Track Severe Weather on mobile